Time;durP1;ratioP1;P1;durP2;ratioP2;P2;SDS_P1;SDS_P2;PMS_P1;PMS_P2;Temp;Humidity;BMP_temperature;BMP_pressure;BME280_temperature;BME280_humidity;BME280_pressure;Samples;Min_cycle;Max_cycle;Signal;HPM_P1;HPM_P2
2021/01/30 00:00:17;;;;;;;2.00;0.77;;;;;;;8.26;100.00;99278.91;5014664;28;20063;-67
2021/01/30 00:03:01;;;;;;;4.40;1.10;;;;;;;8.24;100.00;99283.56;5014115;28;20509;-67
2021/01/30 00:05:45;;;;;;;7.65;1.52;;;;;;;8.21;100.00;99273.22;5027534;28;20119;-67
2021/01/30 00:08:29;;;;;;;4.15;1.50;;;;;;;8.19;100.00;99267.22;5014458;28;20067;-68
2021/01/30 00:11:14;;;;;;;2.83;1.40;;;;;;;8.20;100.00;99268.91;5027185;28;20111;-67
2021/01/30 00:13:58;;;;;;;3.40;1.10;;;;;;;8.19;100.00;99269.88;5014238;28;20415;-67
2021/01/30 00:16:42;;;;;;;1.95;1.13;;;;;;;8.15;100.00;99260.53;5014289;28;20465;-68
2021/01/30 00:19:27;;;;;;;1.90;0.73;;;;;;;8.21;100.00;99249.31;5014216;28;20061;-67
2021/01/30 00:22:16;;;;;;;3.92;1.00;;;;;;;8.20;100.00;99247.66;5026855;28;20053;-67
2021/01/30 00:25:00;;;;;;;5.40;1.50;;;;;;;8.17;100.00;99240.81;5012923;28;20100;-67
2021/01/30 00:27:44;;;;;;;5.45;1.38;;;;;;;8.18;100.00;99244.31;5014094;28;20053;-67
2021/01/30 00:30:31;;;;;;;3.22;1.30;;;;;;;8.18;100.00;99244.31;5026686;28;20060;-67
2021/01/30 00:33:15;;;;;;;4.45;1.52;;;;;;;8.19;100.00;99243.34;5012898;28;20529;-68
2021/01/30 00:35:59;;;;;;;3.42;1.00;;;;;;;8.21;100.00;99244.00;5026846;28;20048;-67
2021/01/30 00:38:43;;;;;;;2.90;1.27;;;;;;;8.26;100.00;99249.72;5014455;28;20379;-68
2021/01/30 00:41:27;;;;;;;4.22;1.15;;;;;;;8.30;100.00;99253.72;5014115;28;20044;-67
2021/01/30 00:44:12;;;;;;;1.92;1.10;;;;;;;8.29;100.00;99249.41;5012603;28;20445;-67
2021/01/30 00:46:57;;;;;;;3.17;0.95;;;;;;;8.26;100.00;99241.75;5012515;28;20572;-67
2021/01/30 00:49:42;;;;;;;2.70;0.90;;;;;;;8.22;100.00;99259.81;5013673;28;20410;-67
2021/01/30 00:52:26;;;;;;;5.47;1.05;;;;;;;8.19;100.00;99256.63;5013338;28;20064;-67
2021/01/30 00:55:12;;;;;;;2.08;1.13;;;;;;;8.22;100.00;99259.81;5013387;28;20128;-66
2021/01/30 00:57:56;;;;;;;3.25;1.38;;;;;;;8.23;100.00;99248.19;5012264;28;20466;-67
2021/01/30 01:00:40;;;;;;;4.45;1.23;;;;;;;8.25;100.00;99271.94;5026421;28;20104;-67
2021/01/30 01:03:24;;;;;;;6.53;1.33;;;;;;;8.24;100.00;99249.03;5013264;28;20502;-67
2021/01/30 01:06:08;;;;;;;3.70;1.15;;;;;;;8.17;100.00;99274.50;5012201;28;20474;-67
2021/01/30 01:08:52;;;;;;;2.38;1.10;;;;;;;8.09;100.00;99256.69;5013155;28;20052;-67
2021/01/30 01:11:37;;;;;;;2.50;2.00;;;;;;;8.02;100.00;99255.63;5013275;28;20052;-67
2021/01/30 01:14:22;;;;;;;7.88;1.10;;;;;;;7.96;100.00;99253.56;5026313;28;20044;-67
2021/01/30 01:17:06;;;;;;;3.83;1.40;;;;;;;7.94;100.00;99266.16;5026214;28;20048;-67
2021/01/30 01:19:51;;;;;;;3.28;1.50;;;;;;;7.91;100.00;99262.97;5026118;28;20132;-67
2021/01/30 01:22:34;;;;;;;4.13;1.70;;;;;;;7.94;100.00;99258.19;5012898;28;20057;-67
2021/01/30 01:25:20;;;;;;;5.82;1.65;;;;;;;7.92;100.00;99260.16;5013127;28;20095;-68
2021/01/30 01:28:04;;;;;;;7.78;1.52;;;;;;;7.92;100.00;99264.63;5012064;28;20177;-68
2021/01/30 01:30:48;;;;;;;4.43;1.45;;;;;;;7.97;100.00;99257.06;5025808;28;20184;-67
2021/01/30 01:33:32;;;;;;;2.83;1.25;;;;;;;7.98;100.00;99259.56;5011231;28;20137;-68
2021/01/30 01:36:20;;;;;;;2.58;1.10;;;;;;;8.06;100.00;99266.75;5025674;28;20048;-67
2021/01/30 01:39:04;;;;;;;2.67;1.20;;;;;;;8.06;100.00;99250.84;5012037;28;20535;-68
2021/01/30 01:42:04;;;;;;;3.80;1.20;;;;;;;8.05;100.00;99247.34;5025811;28;20105;-68
2021/01/30 01:44:49;;;;;;;4.32;1.00;;;;;;;8.09;100.00;99245.22;5012651;28;20104;-68
2021/01/30 01:47:51;;;;;;;3.38;1.00;;;;;;;8.11;100.00;99245.88;5026184;28;20135;-68
2021/01/30 01:50:56;;;;;;;4.57;1.30;;;;;;;8.16;100.00;99235.66;5012840;28;20148;-67
2021/01/30 01:53:42;;;;;;;5.30;1.20;;;;;;;8.14;100.00;99227.03;5011586;28;20096;-68
2021/01/30 01:56:28;;;;;;;4.47;1.30;;;;;;;8.13;100.00;99228.00;5011584;28;20121;-68
2021/01/30 01:59:14;;;;;;;4.10;1.20;;;;;;;8.20;100.00;99234.38;4997985;28;20084;-68
2021/01/30 02:01:58;;;;;;;3.10;1.23;;;;;;;8.20;100.00;99234.38;5011627;28;20100;-68
2021/01/30 02:04:58;;;;;;;3.08;1.33;;;;;;;8.21;100.00;99228.94;5025811;28;20048;-68
2021/01/30 02:07:43;;;;;;;4.90;1.27;;;;;;;8.21;100.00;99220.13;5025362;28;20084;-68
2021/01/30 02:10:33;;;;;;;3.22;1.58;;;;;;;8.23;100.00;99226.13;5011362;28;20111;-68
2021/01/30 02:13:54;;;;;;;2.42;1.10;;;;;;;8.25;100.00;99213.53;5011371;28;20100;-67
2021/01/30 02:16:46;;;;;;;3.13;1.08;;;;;;;8.19;99.97;99215.00;5012599;28;20406;-67
2021/01/30 02:19:55;;;;;;;2.60;0.90;;;;;;;8.16;100.00;99201.16;5012597;28;20124;-67
2021/01/30 02:23:29;;;;;;;3.38;0.90;;;;;;;8.15;99.85;99192.34;5024269;28;20525;-67
2021/01/30 02:26:25;;;;;;;3.45;1.23;;;;;;;8.14;99.90;99195.19;5012576;28;20045;-67
2021/01/30 02:29:31;;;;;;;3.92;1.02;;;;;;;8.12;99.29;99187.34;5025470;28;20414;-67
2021/01/30 02:32:33;;;;;;;4.53;1.00;;;;;;;8.09;100.00;99178.84;5012211;28;20116;-67
2021/01/30 02:35:55;;;;;;;4.80;1.65;;;;;;;8.12;99.96;99183.84;5012566;28;20065;-67
2021/01/30 02:38:43;;;;;;;5.15;1.55;;;;;;;8.11;100.00;99172.41;5025162;28;20052;-67
2021/01/30 02:41:34;;;;;;;2.92;0.95;;;;;;;8.15;100.00;99176.41;5025471;28;20053;-67
2021/01/30 02:44:19;;;;;;;2.95;1.45;;;;;;;8.17;100.00;99173.63;5011715;28;20064;-67
2021/01/30 02:47:07;;;;;;;4.50;1.48;;;;;;;8.16;100.00;99175.44;5015096;28;20582;-68
2021/01/30 02:49:58;;;;;;;2.85;1.00;;;;;;;8.19;100.00;99179.63;5029289;28;20049;-67
2021/01/30 02:52:43;;;;;;;2.92;0.73;;;;;;;8.16;100.00;99182.56;5028975;28;20560;-67
2021/01/30 02:55:31;;;;;;;1.95;1.40;;;;;;;8.10;100.00;99167.25;5028740;28;20052;-67
2021/01/30 02:58:16;;;;;;;6.03;1.58;;;;;;;8.02;100.00;99168.03;5015160;28;20052;-67
2021/01/30 03:01:00;;;;;;;3.60;1.20;;;;;;;7.93;100.00;99176.09;5015683;28;20116;-67
2021/01/30 03:03:44;;;;;;;8.38;1.40;;;;;;;7.87;100.00;99179.34;5015530;28;20056;-67
2021/01/30 03:06:40;;;;;;;3.72;1.40;;;;;;;7.77;100.00;99175.94;5015744;28;20048;-67
2021/01/30 03:09:32;;;;;;;6.32;1.50;;;;;;;7.65;100.00;99183.31;5014727;28;20045;-67
2021/01/30 03:12:39;;;;;;;6.45;1.52;;;;;;;7.56;100.00;99172.78;5028563;28;20590;-67
2021/01/30 03:16:01;;;;;;;6.30;1.67;;;;;;;7.52;100.00;99183.84;5028579;28;20079;-66
2021/01/30 03:18:55;;;;;;;6.68;1.38;;;;;;;7.45;100.00;99180.13;5000682;28;20517;-66
2021/01/30 03:21:41;;;;;;;6.80;2.57;;;;;;;7.38;100.00;99169.28;5028380;28;20582;-66
2021/01/30 03:24:26;;;;;;;6.95;1.45;;;;;;;7.40;100.00;99177.91;5028391;28;20155;-66
2021/01/30 03:27:31;;;;;;;4.93;1.48;;;;;;;7.36;100.00;99165.97;5015399;28;20145;-66
2021/01/30 03:30:16;;;;;;;6.60;1.60;;;;;;;7.31;100.00;99160.28;5013957;28;20056;-67
2021/01/30 03:33:00;;;;;;;7.85;1.42;;;;;;;7.26;100.00;99165.19;5014048;28;20470;-67
2021/01/30 03:35:45;;;;;;;5.90;1.60;;;;;;;7.27;100.00;99172.16;5015457;28;20057;-66
2021/01/30 03:38:28;;;;;;;4.55;1.67;;;;;;;7.24;100.00;99166.31;5028194;28;20517;-67
2021/01/30 03:41:13;;;;;;;3.80;1.60;;;;;;;7.21;100.00;99170.13;5015180;28;20064;-66
2021/01/30 03:43:56;;;;;;;5.88;1.15;;;;;;;7.21;100.00;99161.31;5013847;28;20489;-67
2021/01/30 03:46:42;;;;;;;6.13;1.50;;;;;;;7.21;100.00;99159.50;5014877;28;20128;-66
2021/01/30 03:49:26;;;;;;;5.40;1.70;;;;;;;7.18;100.00;99157.16;5013755;28;20553;-66
2021/01/30 03:52:10;;;;;;;2.97;1.40;;;;;;;7.13;100.00;99159.44;5013642;28;20124;-67
2021/01/30 03:54:54;;;;;;;7.68;1.60;;;;;;;7.11;100.00;99157.91;5014559;28;20493;-67
2021/01/30 03:57:38;;;;;;;5.45;1.38;;;;;;;7.12;100.00;99156.91;5013812;28;20061;-67
2021/01/30 04:00:24;;;;;;;6.72;1.40;;;;;;;7.09;100.00;99152.72;5014801;28;20049;-67
2021/01/30 04:03:11;;;;;;;4.10;1.30;;;;;;;7.08;100.00;99153.72;5163492;22;20057;-68
2021/01/30 04:05:55;;;;;;;5.32;1.73;;;;;;;7.05;100.00;99150.53;5019573;28;20076;-70
2021/01/30 04:08:39;;;;;;;4.07;1.25;;;;;;;7.04;100.00;99144.41;5034504;28;20091;-70
2021/01/30 04:11:28;;;;;;;5.90;1.42;;;;;;;7.00;100.00;99143.06;5033349;28;20080;-69
2021/01/30 04:14:12;;;;;;;2.92;1.42;;;;;;;6.98;100.00;99134.41;5033142;28;20064;-69
2021/01/30 04:16:56;;;;;;;4.15;1.70;;;;;;;6.94;100.00;99138.34;5033285;28;20098;-69
2021/01/30 04:19:40;;;;;;;5.28;1.20;;;;;;;6.93;100.00;99144.63;5034489;28;20084;-68
2021/01/30 04:22:24;;;;;;;9.52;1.20;;;;;;;6.94;100.00;99138.34;5033039;28;20067;-69
2021/01/30 04:25:09;;;;;;;4.95;1.17;;;;;;;6.95;100.00;99149.75;5033880;28;20461;-69
2021/01/30 04:27:55;;;;;;;4.55;1.65;;;;;;;6.93;100.00;99136.69;5033039;28;20103;-69
2021/01/30 04:30:39;;;;;;;6.57;1.27;;;;;;;6.93;100.00;99136.69;5033726;28;20072;-69
2021/01/30 04:33:23;;;;;;;3.30;1.73;;;;;;;6.91;100.00;99132.50;5033896;28;20464;-68
2021/01/30 04:36:08;;;;;;;6.97;1.60;;;;;;;6.90;100.00;99141.44;5033879;28;20064;-69
2021/01/30 04:38:52;;;;;;;6.50;1.13;;;;;;;6.88;100.00;99133.63;5032879;28;20047;-69
2021/01/30 04:41:45;;;;;;;3.30;1.13;;;;;;;6.87;100.00;99137.25;5033825;28;20071;-68
2021/01/30 04:44:46;;;;;;;8.70;1.30;;;;;;;6.90;100.00;99133.47;5033422;28;20095;-69
2021/01/30 04:47:39;;;;;;;5.18;1.42;;;;;;;6.86;100.00;99137.44;5032774;28;20044;-69
2021/01/30 04:50:32;;;;;;;10.93;2.33;;;;;;;6.89;100.00;99129.16;5032425;28;20111;-69
2021/01/30 04:53:36;;;;;;;7.93;2.05;;;;;;;6.88;100.00;99123.03;5033550;28;20075;-69
2021/01/30 04:56:45;;;;;;;8.75;1.70;;;;;;;6.89;100.00;99119.38;5033424;28;20076;-69
2021/01/30 04:59:54;;;;;;;11.73;2.15;;;;;;;6.85;100.00;99120.69;5032392;28;20052;-70
2021/01/30 05:02:45;;;;;;;12.48;2.20;;;;;;;6.85;100.00;99117.19;5032303;28;20107;-68
2021/01/30 05:05:29;;;;;;;12.82;2.70;;;;;;;6.84;100.00;99116.38;5033602;28;20079;-70
2021/01/30 05:08:28;;;;;;;;;;;;;;;6.81;100.00;99106.09;5031983;28;20057;-69
2021/01/30 05:11:16;;;;;;;11.52;1.42;;;;;;;6.82;100.00;99107.75;5018263;28;20298;-70
2021/01/30 05:14:17;;;;;;;10.60;3.05;;;;;;;6.84;100.00;99103.13;5018090;28;20076;-70
2021/01/30 05:17:07;;;;;;;5.70;1.35;;;;;;;6.93;100.00;99111.97;5031927;28;20116;-69
2021/01/30 05:20:00;;;;;;;8.82;1.95;;;;;;;6.96;100.00;99101.94;5032097;28;20410;-70
2021/01/30 05:22:46;;;;;;;10.52;1.77;;;;;;;7.04;100.00;99107.31;5031858;28;20064;-70
2021/01/30 05:25:30;;;;;;;11.20;1.85;;;;;;;7.09;100.00;99109.53;5031856;28;20064;-70
2021/01/30 05:29:09;;;;;;;5.20;1.05;;;;;;;7.16;100.00;99111.41;5031785;28;20088;-70
2021/01/30 05:32:14;;;;;;;3.83;1.63;;;;;;;7.25;100.00;99110.50;5031652;28;20099;-70
2021/01/30 05:35:03;;;;;;;;;;;;;;;7.26;100.00;99101.56;5032299;28;20110;-70
2021/01/30 05:37:51;;;;;;;9.32;2.22;;;;;;;7.35;100.00;99095.38;5017779;28;19940;-70
2021/01/30 05:40:40;;;;;;;15.18;2.83;;;;;;;7.36;100.00;99097.03;5031665;28;20425;-70
2021/01/30 05:43:33;;;;;;;14.73;1.95;;;;;;;7.42;100.00;99080.53;5032829;28;20048;-70
2021/01/30 05:46:28;;;;;;;10.30;2.70;;;;;;;7.48;100.00;99092.34;5031883;28;20044;-70
2021/01/30 05:49:15;;;;;;;4.55;1.40;;;;;;;7.48;100.00;99085.19;5032926;28;20048;-70
2021/01/30 05:52:09;;;;;;;6.15;1.48;;;;;;;7.49;100.00;99086.03;5031678;28;20048;-71
2021/01/30 05:54:53;;;;;;;10.48;2.47;;;;;;;7.50;100.00;99071.78;5017522;28;20413;-70
2021/01/30 05:57:37;;;;;;;11.18;2.25;;;;;;;7.53;100.00;99067.84;5031724;28;20425;-71
2021/01/30 06:00:22;;;;;;;12.82;2.22;;;;;;;7.56;100.00;99056.09;5032532;28;20115;-71
2021/01/30 06:03:17;;;;;;;13.32;1.95;;;;;;;7.52;100.00;99056.56;5031224;28;20107;-71
2021/01/30 06:06:09;;;;;;;10.20;2.30;;;;;;;7.61;100.00;99059.09;5032520;28;20082;-71
2021/01/30 06:08:59;;;;;;;10.52;2.30;;;;;;;7.64;99.94;99054.31;5031571;28;20096;-71
2021/01/30 06:11:45;;;;;;;12.90;2.72;;;;;;;7.64;99.64;99050.84;5031484;28;20129;-71
2021/01/30 06:14:36;;;;;;;12.32;2.38;;;;;;;7.68;99.03;99044.25;5017513;28;20099;-70
2021/01/30 06:17:26;;;;;;;10.60;2.25;;;;;;;7.65;99.02;99050.69;5031410;28;20048;-71
2021/01/30 06:20:28;;;;;;;8.30;2.10;;;;;;;7.68;98.56;99038.94;5036168;28;20057;-71
2021/01/30 06:23:12;;;;;;;8.35;1.98;;;;;;;7.73;97.84;99041.97;5035105;28;20132;-71
2021/01/30 06:26:09;;;;;;;8.02;2.42;;;;;;;7.66;98.81;99038.28;5036443;28;20103;-71
2021/01/30 06:29:00;;;;;;;10.77;2.20;;;;;;;7.66;98.50;99040.91;5035113;28;20047;-71
2021/01/30 06:31:44;;;;;;;12.10;2.28;;;;;;;7.66;98.29;99032.97;5035170;28;20064;-71
2021/01/30 06:34:35;;;;;;;9.35;2.53;;;;;;;7.67;98.31;99034.63;5021173;28;20107;-71
2021/01/30 06:37:42;;;;;;;6.38;1.77;;;;;;;7.64;98.36;99033.09;5034934;28;20053;-70
2021/01/30 06:40:29;;;;;;;6.70;1.95;;;;;;;7.64;97.90;99019.03;5035153;28;20082;-70
2021/01/30 06:43:33;;;;;;;11.18;2.20;;;;;;;7.64;98.65;99019.03;5034935;28;20470;-70
2021/01/30 06:46:20;;;;;;;7.88;2.33;;;;;;;7.62;98.44;99023.66;5034771;28;20437;-70
2021/01/30 06:49:16;;;;;;;8.38;1.70;;;;;;;7.68;97.56;99025.69;5035711;28;20134;-69
2021/01/30 06:52:19;;;;;;;15.07;2.50;;;;;;;7.65;98.22;99028.66;5035621;28;20155;-70
2021/01/30 06:55:03;;;;;;;10.18;2.67;;;;;;;7.68;97.88;99023.88;5034514;28;20370;-70
2021/01/30 06:58:00;;;;;;;12.45;2.58;;;;;;;7.75;96.84;99029.38;5035614;28;20115;-70
2021/01/30 07:00:44;;;;;;;10.52;2.40;;;;;;;7.77;96.89;99016.78;5034677;28;20405;-67
2021/01/30 07:03:50;;;;;;;7.78;2.10;;;;;;;7.74;97.48;99022.41;5034334;28;20060;-69
2021/01/30 07:07:00;;;;;;;11.95;2.60;;;;;;;7.78;96.25;99018.44;5034534;28;20418;-70
2021/01/30 07:09:53;;;;;;;15.63;2.58;;;;;;;7.77;97.24;99011.47;5035485;28;20121;-70
2021/01/30 07:12:48;;;;;;;13.73;3.35;;;;;;;7.79;96.84;99005.03;5035531;28;20528;-70
2021/01/30 07:15:34;;;;;;;13.65;2.15;;;;;;;7.85;95.87;99014.19;5034328;28;20044;-70
2021/01/30 07:18:30;;;;;;;6.10;2.10;;;;;;;7.82;95.97;99003.91;5034191;28;20052;-70
2021/01/30 07:21:23;;;;;;;10.20;2.70;;;;;;;7.91;95.13;99002.94;5034305;28;20080;-70
2021/01/30 07:24:13;;;;;;;9.20;2.28;;;;;;;7.90;94.86;98995.97;5034235;28;20125;-70
2021/01/30 07:27:01;;;;;;;9.55;2.22;;;;;;;7.89;96.20;98999.59;5035291;28;20060;-70
2021/01/30 07:30:03;;;;;;;9.63;2.20;;;;;;;7.84;96.78;99002.72;5033831;28;20447;-70
2021/01/30 07:32:53;;;;;;;11.57;1.75;;;;;;;7.88;95.62;98997.94;5033932;28;20107;-70
2021/01/30 07:35:42;;;;;;;11.60;2.10;;;;;;;7.93;94.95;99000.97;5020373;28;20052;-70
2021/01/30 07:38:44;;;;;;;12.48;3.17;;;;;;;7.91;95.22;98995.81;5033988;28;20111;-69
2021/01/30 07:41:28;;;;;;;11.93;2.22;;;;;;;7.90;96.29;98993.31;5033820;28;20060;-69
2021/01/30 07:44:29;;;;;;;13.10;2.53;;;;;;;7.93;94.71;99001.78;5035276;28;20048;-69
2021/01/30 07:47:27;;;;;;;8.20;2.33;;;;;;;7.95;94.75;98988.38;5033606;28;20052;-68
2021/01/30 07:50:30;;;;;;;6.95;2.13;;;;;;;7.96;95.52;98984.72;5033501;28;20126;-69
2021/01/30 07:53:17;;;;;;;9.93;2.35;;;;;;;7.98;94.71;98988.91;5033440;28;20486;-68
2021/01/30 07:56:40;;;;;;;11.10;2.10;;;;;;;8.01;94.75;98982.41;5033986;28;20052;-69
2021/01/30 07:59:45;;;;;;;10.48;2.15;;;;;;;8.00;95.57;98975.44;5035017;28;20075;-68
2021/01/30 08:02:40;;;;;;;7.18;1.90;;;;;;;8.02;94.70;98969.00;5033262;28;20076;-69
2021/01/30 08:05:36;;;;;;;14.85;2.65;;;;;;;8.05;95.28;98978.47;5033770;28;20107;-69
2021/01/30 08:08:39;;;;;;;10.30;2.30;;;;;;;8.09;94.65;98979.81;5032580;28;20103;-70
2021/01/30 08:11:36;;;;;;;13.98;2.60;;;;;;;8.12;93.43;98958.25;5032681;28;20045;-70
2021/01/30 08:14:35;;;;;;;14.57;2.50;;;;;;;8.11;96.08;98945.97;5032644;28;20114;-69
2021/01/30 08:17:31;;;;;;;7.80;2.38;;;;;;;8.14;94.49;98946.47;5032567;28;20447;-69
2021/01/30 08:20:55;;;;;;;11.27;2.72;;;;;;;8.08;96.72;98931.22;5032763;28;20099;-69
2021/01/30 08:24:01;;;;;;;13.38;2.75;;;;;;;8.13;96.20;98949.31;5031201;28;20044;-69
2021/01/30 08:27:09;;;;;;;11.30;3.00;;;;;;;8.16;96.55;98938.38;5031290;28;20445;-68
2021/01/30 08:29:59;;;;;;;15.73;3.00;;;;;;;8.20;96.55;98934.41;5032228;28;20076;-69
2021/01/30 08:33:12;;;;;;;12.80;3.38;;;;;;;8.22;95.36;98924.47;5032362;28;20106;-69
2021/01/30 08:35:57;;;;;;;7.30;2.40;;;;;;;8.25;94.62;98917.00;5030382;28;20060;-69
2021/01/30 08:38:41;;;;;;;11.43;2.90;;;;;;;8.22;95.04;98922.66;5032534;28;20049;-69
2021/01/30 08:41:25;;;;;;;11.57;2.60;;;;;;;8.20;95.85;98926.47;5031977;28;20111;-69
2021/01/30 08:44:29;;;;;;;9.35;2.33;;;;;;;8.22;94.63;98927.97;5033329;28;20103;-69
2021/01/30 08:47:26;;;;;;;7.03;2.03;;;;;;;8.22;95.13;98921.81;5033050;28;20045;-70
2021/01/30 08:50:31;;;;;;;15.88;3.38;;;;;;;8.24;95.17;98925.16;5032869;28;20099;-69
2021/01/30 08:53:18;;;;;;;14.00;3.28;;;;;;;8.23;96.10;98929.63;5031832;28;20052;-70
2021/01/30 08:56:04;;;;;;;11.52;2.58;;;;;;;8.26;95.17;98920.50;5031915;28;20048;-69
2021/01/30 08:58:50;;;;;;;11.15;2.65;;;;;;;8.26;95.56;98929.28;5033022;28;20402;-69
2021/01/30 09:01:44;;;;;;;8.25;2.60;;;;;;;8.32;95.07;98930.47;5031856;28;20080;-69
2021/01/30 09:04:52;;;;;;;;;;;;;;;8.32;95.08;98923.34;5032059;28;20517;-69
2021/01/30 09:07:40;;;;;;;14.68;3.10;;;;;;;8.33;95.62;98918.84;5031893;28;19973;-69
2021/01/30 09:10:29;;;;;;;18.25;3.05;;;;;;;8.37;96.59;98925.50;5032706;28;20056;-69
2021/01/30 09:13:19;;;;;;;9.23;2.15;;;;;;;8.41;96.05;98926.84;5031389;28;20044;-69
2021/01/30 09:16:03;;;;;;;13.73;3.85;;;;;;;8.44;96.94;98931.84;5032637;28;20528;-70
2021/01/30 09:18:49;;;;;;;13.50;2.80;;;;;;;8.43;97.77;98936.31;5032750;28;20142;-70
2021/01/30 09:21:39;;;;;;;12.70;3.50;;;;;;;8.41;98.64;98926.84;5031469;28;20050;-70
2021/01/30 09:24:39;;;;;;;18.42;3.60;;;;;;;8.39;100.00;98939.44;5031619;28;20406;-70
2021/01/30 09:27:27;;;;;;;9.93;2.65;;;;;;;8.31;100.00;98934.13;5031504;28;20102;-69
2021/01/30 09:30:24;;;;;;;15.43;3.03;;;;;;;8.33;100.00;98929.47;5031483;28;20056;-70
2021/01/30 09:33:40;;;;;;;13.18;2.67;;;;;;;8.29;100.00;98918.38;5031376;28;20048;-69
2021/01/30 09:36:32;;;;;;;22.13;3.65;;;;;;;8.34;100.00;98925.84;5032170;28;20126;-69
2021/01/30 09:39:32;;;;;;;13.10;2.58;;;;;;;8.34;100.00;98915.22;5031223;28;20171;-69
2021/01/30 09:42:20;;;;;;;12.02;2.60;;;;;;;8.35;100.00;98916.88;5032120;28;20095;-69
2021/01/30 09:45:15;;;;;;;17.55;3.40;;;;;;;8.36;100.00;98911.41;5030974;28;20083;-68
2021/01/30 09:48:03;;;;;;;16.50;3.20;;;;;;;8.39;100.00;98915.56;5031036;28;20052;-68
2021/01/30 09:50:50;;;;;;;20.20;3.33;;;;;;;8.44;99.38;98913.25;5031167;28;20133;-70
2021/01/30 09:53:49;;;;;;;13.60;2.70;;;;;;;8.45;97.22;98917.56;5030835;28;20143;-70
2021/01/30 09:56:36;;;;;;;11.15;2.83;;;;;;;8.49;98.24;98906.47;5031161;28;20091;-70
2021/01/30 09:59:25;;;;;;;14.88;3.00;;;;;;;8.49;97.86;98908.28;5031047;28;20135;-70
2021/01/30 10:02:19;;;;;;;9.35;2.60;;;;;;;8.50;97.22;98909.94;5031197;28;20130;-69
2021/01/30 10:05:13;;;;;;;10.70;2.73;;;;;;;8.51;98.40;98906.28;5030739;28;20068;-68
2021/01/30 10:07:57;;;;;;;10.77;2.55;;;;;;;8.51;100.00;98909.78;5030847;28;20564;-71
2021/01/30 10:10:41;;;;;;;13.77;3.13;;;;;;;8.46;100.00;98908.59;5032119;28;20144;-71
2021/01/30 10:13:25;;;;;;;12.50;3.70;;;;;;;8.44;100.00;98910.59;5030912;28;20461;-70
2021/01/30 10:16:14;;;;;;;10.85;3.30;;;;;;;8.38;100.00;98913.91;5030952;28;20134;-71
2021/01/30 10:19:07;;;;;;;16.77;3.28;;;;;;;8.36;100.00;98907.94;5032005;28;20124;-70
2021/01/30 10:21:52;;;;;;;16.30;3.47;;;;;;;8.32;100.00;98906.56;5032181;28;20041;-71
2021/01/30 10:24:36;;;;;;;9.48;3.03;;;;;;;8.30;100.00;98908.56;5030892;28;20146;-70
2021/01/30 10:27:26;;;;;;;13.80;3.00;;;;;;;8.24;100.00;98904.72;5016889;28;20107;-70
2021/01/30 10:30:14;;;;;;;10.90;3.20;;;;;;;8.19;100.00;98899.09;5031871;28;20095;-70
2021/01/30 10:33:00;;;;;;;17.30;3.78;;;;;;;8.18;100.00;98893.91;5030804;28;20048;-70
2021/01/30 10:35:47;;;;;;;13.20;3.00;;;;;;;8.24;100.00;98893.31;5031086;28;20047;-70
2021/01/30 10:38:32;;;;;;;10.32;3.15;;;;;;;8.19;100.00;98891.13;5030872;28;20080;-70
2021/01/30 10:41:18;;;;;;;11.65;2.75;;;;;;;8.23;100.00;98886.34;5030558;28;20519;-70
2021/01/30 10:44:03;;;;;;;15.43;3.88;;;;;;;8.15;100.00;98886.28;5057623;22;20121;-66
2021/01/30 10:46:54;;;;;;;20.15;3.63;;;;;;;8.19;100.00;98877.88;5056096;28;20051;-66
2021/01/30 10:49:39;;;;;;;15.85;3.50;;;;;;;8.21;100.00;98880.34;5070425;28;20046;-66
2021/01/30 10:52:24;;;;;;;17.02;3.28;;;;;;;8.21;100.00;98872.38;5056291;28;20044;-65
2021/01/30 10:55:29;;;;;;;17.48;3.42;;;;;;;8.19;100.00;98869.06;5070286;28;20040;-65
2021/01/30 10:58:13;;;;;;;;;;;;;;;8.16;100.00;98869.34;5070820;28;20091;-66
2021/01/30 11:01:01;;;;;;;10.97;2.90;;;;;;;8.17;100.00;98865.72;5071593;28;19919;-65
2021/01/30 11:03:51;;;;;;;10.43;2.78;;;;;;;8.21;100.00;98861.75;5071226;28;20051;-65
2021/01/30 11:06:43;;;;;;;17.95;4.15;;;;;;;8.26;100.00;98856.81;5073418;28;20420;-65
2021/01/30 11:09:31;;;;;;;16.35;3.22;;;;;;;8.31;100.00;98851.81;5073801;28;20225;-65
2021/01/30 11:12:24;;;;;;;16.58;3.05;;;;;;;8.32;100.00;98854.31;5073739;28;20523;-65
2021/01/30 11:15:17;;;;;;;24.15;4.22;;;;;;;8.41;100.00;98847.19;5059930;28;20043;-66
2021/01/30 11:18:22;;;;;;;17.35;3.65;;;;;;;8.29;100.00;98841.38;5074859;28;20430;-66
2021/01/30 11:21:10;;;;;;;16.65;2.90;;;;;;;8.37;100.00;98836.06;5073642;28;20392;-66
2021/01/30 11:23:55;;;;;;;17.75;3.20;;;;;;;8.41;100.00;98831.25;5073343;28;20059;-66
2021/01/30 11:26:40;;;;;;;14.52;2.80;;;;;;;8.27;100.00;98830.06;5074705;28;20150;-65
2021/01/30 11:29:54;;;;;;;15.98;3.53;;;;;;;8.28;100.00;98817.63;5073528;28;20067;-65
2021/01/30 11:32:38;;;;;;;13.13;3.58;;;;;;;8.37;100.00;98809.50;5067763;28;20178;-65
2021/01/30 11:35:25;;;;;;;20.65;4.10;;;;;;;8.49;100.00;98802.06;5073153;28;20052;-65
2021/01/30 11:38:17;;;;;;;14.05;3.88;;;;;;;8.55;100.00;98790.78;5073431;28;20102;-66
2021/01/30 11:41:01;;;;;;;20.15;4.10;;;;;;;8.67;100.00;98786.78;5059224;28;20035;-66
2021/01/30 11:43:45;;;;;;;15.80;4.15;;;;;;;8.70;100.00;98778.47;5072913;28;20357;-66
2021/01/30 11:46:29;;;;;;;19.85;4.82;;;;;;;8.69;100.00;98769.69;5073960;28;20470;-66
2021/01/30 11:49:13;;;;;;;19.70;4.40;;;;;;;8.87;100.00;98769.47;5073991;28;20420;-66
2021/01/30 11:51:57;;;;;;;26.20;5.13;;;;;;;9.02;100.00;98776.56;5074201;28;20097;-66
2021/01/30 11:54:42;;;;;;;16.00;4.20;;;;;;;9.06;100.00;98753.97;5074329;28;20059;-66
2021/01/30 11:57:25;;;;;;;21.08;4.82;;;;;;;9.19;100.00;98748.09;5074096;28;20048;-66
2021/01/30 12:00:12;;;;;;;17.85;4.25;;;;;;;9.25;100.00;98752.72;5072647;28;20050;-66
2021/01/30 12:02:56;;;;;;;22.15;4.40;;;;;;;9.30;100.00;98745.06;5073841;28;20079;-66
2021/01/30 12:05:41;;;;;;;19.38;4.25;;;;;;;9.48;100.00;98743.00;5072735;28;20051;-66
2021/01/30 12:08:25;;;;;;;20.88;4.82;;;;;;;9.54;100.00;98739.63;5073921;28;20457;-66
2021/01/30 12:11:11;;;;;;;12.38;3.28;;;;;;;9.60;100.00;98728.28;5072480;28;20074;-66
2021/01/30 12:13:55;;;;;;;18.00;3.35;;;;;;;9.62;100.00;98724.47;5072903;28;20117;-66
2021/01/30 12:16:40;;;;;;;16.95;3.35;;;;;;;9.58;100.00;98723.13;5072173;28;20101;-66
2021/01/30 12:19:24;;;;;;;11.93;4.18;;;;;;;9.66;100.00;98719.59;5073468;28;20122;-66
2021/01/30 12:22:08;;;;;;;15.18;3.85;;;;;;;9.64;100.00;98711.81;5073304;28;20431;-66
2021/01/30 12:24:52;;;;;;;14.43;4.43;;;;;;;9.64;100.00;98705.66;5073121;28;20117;-65
2021/01/30 12:27:38;;;;;;;10.82;3.30;;;;;;;9.50;100.00;98704.56;5073459;28;20106;-66
2021/01/30 12:30:24;;;;;;;11.68;3.40;;;;;;;9.46;100.00;98694.47;5072290;28;20135;-65
2021/01/30 12:33:07;;;;;;;17.63;4.20;;;;;;;9.47;100.00;98688.97;5071853;28;20184;-66
2021/01/30 12:35:52;;;;;;;14.48;3.65;;;;;;;9.50;100.00;98695.78;5072015;28;20170;-66
2021/01/30 12:38:36;;;;;;;12.68;4.00;;;;;;;9.42;100.00;98701.13;5073146;28;20189;-66
2021/01/30 12:41:20;;;;;;;15.10;3.75;;;;;;;9.30;100.00;98689.22;5072867;28;20135;-66
2021/01/30 12:44:05;;;;;;;13.05;3.47;;;;;;;9.31;100.00;98693.53;5072714;28;20047;-66
2021/01/30 12:46:49;;;;;;;13.80;3.65;;;;;;;9.33;100.00;98691.53;5072912;28;20506;-66
2021/01/30 12:49:33;;;;;;;16.25;3.75;;;;;;;9.24;100.00;98692.56;5058186;28;20549;-66
2021/01/30 12:52:17;;;;;;;11.30;3.00;;;;;;;9.23;100.00;98696.22;5072701;28;20132;-66
2021/01/30 12:55:01;;;;;;;14.80;3.70;;;;;;;9.17;100.00;98678.34;5071825;28;20238;-66
2021/01/30 12:57:45;;;;;;;13.13;3.88;;;;;;;9.17;100.00;98681.81;5071727;28;20619;-66
2021/01/30 13:00:31;;;;;;;17.40;6.63;;;;;;;9.18;100.00;98672.81;5072762;28;20131;-66
2021/01/30 13:03:15;;;;;;;19.48;7.82;;;;;;;9.18;100.00;98672.00;5072734;28;20581;-66
2021/01/30 13:05:59;;;;;;;18.77;6.97;;;;;;;9.21;100.00;98669.84;5072592;28;20132;-66
2021/01/30 13:08:45;;;;;;;14.73;5.55;;;;;;;9.28;100.00;98662.00;5072478;28;20071;-66
2021/01/30 13:11:29;;;;;;;17.45;5.10;;;;;;;9.29;100.00;98659.13;5071297;28;20389;-66
2021/01/30 13:14:13;;;;;;;10.70;4.05;;;;;;;9.35;100.00;98652.28;5071409;28;20055;-65
2021/01/30 13:16:58;;;;;;;12.07;3.92;;;;;;;9.35;100.00;98652.28;5071372;28;20519;-66
2021/01/30 13:19:44;;;;;;;13.02;3.78;;;;;;;9.36;100.00;98640.69;5071386;28;20128;-66